sensor_id;sensor_type;location;lat;lon;timestamp;temperature;humidity
29813;DHT22;16707;48.106;11.548;2023-02-28T00:01:11;-2.40;99.90
29813;DHT22;16707;48.106;11.548;2023-02-28T00:03:41;-2.50;99.90
29813;DHT22;16707;48.106;11.548;2023-02-28T00:06:09;-2.50;99.90
29813;DHT22;16707;48.106;11.548;2023-02-28T00:08:36;-2.50;99.90
29813;DHT22;16707;48.106;11.548;2023-02-28T00:11:05;-2.50;99.90
29813;DHT22;16707;48.106;11.548;2023-02-28T00:13:37;-2.50;99.90
29813;DHT22;16707;48.106;11.548;2023-02-28T00:16:08;-2.50;99.90
29813;DHT22;16707;48.106;11.548;2023-02-28T00:18:41;-2.60;99.90
29813;DHT22;16707;48.106;11.548;2023-02-28T00:21:09;-2.50;99.90
29813;DHT22;16707;48.106;11.548;2023-02-28T00:23:42;-2.50;99.90
29813;DHT22;16707;48.106;11.548;2023-02-28T00:26:09;-2.60;99.90
29813;DHT22;16707;48.106;11.548;2023-02-28T00:28:41;-2.60;99.90
29813;DHT22;16707;48.106;11.548;2023-02-28T00:31:11;-2.60;99.90
29813;DHT22;16707;48.106;11.548;2023-02-28T00:33:38;-2.70;99.90
29813;DHT22;16707;48.106;11.548;2023-02-28T00:36:07;-2.60;99.90
29813;DHT22;16707;48.106;11.548;2023-02-28T00:38:38;-2.60;99.90
29813;DHT22;16707;48.106;11.548;2023-02-28T00:41:05;-2.60;99.90
29813;DHT22;16707;48.106;11.548;2023-02-28T00:43:37;-2.60;99.90
29813;DHT22;16707;48.106;11.548;2023-02-28T00:46:12;-2.60;99.90
29813;DHT22;16707;48.106;11.548;2023-02-28T00:48:39;-2.60;99.90
29813;DHT22;16707;48.106;11.548;2023-02-28T00:51:07;-2.80;99.90
29813;DHT22;16707;48.106;11.548;2023-02-28T00:53:37;-2.70;99.90
29813;DHT22;16707;48.106;11.548;2023-02-28T00:56:09;-2.70;99.90
29813;DHT22;16707;48.106;11.548;2023-02-28T00:58:36;-2.70;99.90
29813;DHT22;16707;48.106;11.548;2023-02-28T01:01:03;-2.80;99.90
29813;DHT22;16707;48.106;11.548;2023-02-28T01:03:31;-2.80;99.90
29813;DHT22;16707;48.106;11.548;2023-02-28T01:05:59;-2.80;99.90
29813;DHT22;16707;48.106;11.548;2023-02-28T01:08:28;-2.80;99.90
29813;DHT22;16707;48.106;11.548;2023-02-28T01:10:55;-2.90;99.90
29813;DHT22;16707;48.106;11.548;2023-02-28T01:13:23;-2.90;99.90
29813;DHT22;16707;48.106;11.548;2023-02-28T01:15:52;-2.90;99.90
29813;DHT22;16707;48.106;11.548;2023-02-28T01:18:20;-2.80;99.90
29813;DHT22;16707;48.106;11.548;2023-02-28T01:20:48;-2.70;99.90
29813;DHT22;16707;48.106;11.548;2023-02-28T01:23:18;-2.80;99.90
29813;DHT22;16707;48.106;11.548;2023-02-28T01:25:45;-2.90;99.90
29813;DHT22;16707;48.106;11.548;2023-02-28T01:28:12;-3.00;99.90
29813;DHT22;16707;48.106;11.548;2023-02-28T01:30:42;-3.10;99.90
29813;DHT22;16707;48.106;11.548;2023-02-28T01:33:10;-3.00;99.90
29813;DHT22;16707;48.106;11.548;2023-02-28T01:35:37;-2.90;99.90
29813;DHT22;16707;48.106;11.548;2023-02-28T01:38:05;-3.00;99.90
29813;DHT22;16707;48.106;11.548;2023-02-28T01:40:32;-3.00;99.90
29813;DHT22;16707;48.106;11.548;2023-02-28T01:42:59;-3.00;99.90
29813;DHT22;16707;48.106;11.548;2023-02-28T01:45:27;-3.10;99.90
29813;DHT22;16707;48.106;11.548;2023-02-28T01:47:57;-3.00;99.90
29813;DHT22;16707;48.106;11.548;2023-02-28T01:50:28;-3.00;99.90
29813;DHT22;16707;48.106;11.548;2023-02-28T01:53:01;-3.00;99.90
29813;DHT22;16707;48.106;11.548;2023-02-28T01:55:36;-2.90;99.90
29813;DHT22;16707;48.106;11.548;2023-02-28T01:58:05;-2.90;99.90
29813;DHT22;16707;48.106;11.548;2023-02-28T02:00:33;-2.90;99.90
29813;DHT22;16707;48.106;11.548;2023-02-28T02:03:05;-3.10;99.90
29813;DHT22;16707;48.106;11.548;2023-02-28T02:05:38;-3.10;99.90
29813;DHT22;16707;48.106;11.548;2023-02-28T02:08:16;-3.00;99.90
29813;DHT22;16707;48.106;11.548;2023-02-28T02:10:54;-3.00;99.90
29813;DHT22;16707;48.106;11.548;2023-02-28T02:13:34;-3.10;99.90
29813;DHT22;16707;48.106;11.548;2023-02-28T02:16:17;-3.10;99.90
29813;DHT22;16707;48.106;11.548;2023-02-28T02:18:53;-3.10;99.90
29813;DHT22;16707;48.106;11.548;2023-02-28T02:25:09;-3.10;99.90
29813;DHT22;16707;48.106;11.548;2023-02-28T02:27:48;-3.10;99.90
29813;DHT22;16707;48.106;11.548;2023-02-28T02:30:39;-3.10;99.90
29813;DHT22;16707;48.106;11.548;2023-02-28T02:33:41;-3.20;99.90
29813;DHT22;16707;48.106;11.548;2023-02-28T02:36:47;-3.20;99.90
29813;DHT22;16707;48.106;11.548;2023-02-28T02:39:22;-3.20;99.90
29813;DHT22;16707;48.106;11.548;2023-02-28T02:41:52;-3.20;99.90
29813;DHT22;16707;48.106;11.548;2023-02-28T02:44:22;-3.20;99.90
29813;DHT22;16707;48.106;11.548;2023-02-28T02:46:53;-3.20;99.90
29813;DHT22;16707;48.106;11.548;2023-02-28T02:49:26;-3.30;99.90
29813;DHT22;16707;48.106;11.548;2023-02-28T02:51:58;-3.30;99.90
29813;DHT22;16707;48.106;11.548;2023-02-28T02:54:29;-3.30;99.90
29813;DHT22;16707;48.106;11.548;2023-02-28T02:57:01;-3.30;99.90
29813;DHT22;16707;48.106;11.548;2023-02-28T02:59:30;-3.30;99.90
29813;DHT22;16707;48.106;11.548;2023-02-28T03:02:00;-3.40;99.90
29813;DHT22;16707;48.106;11.548;2023-02-28T03:04:31;-3.40;99.90
29813;DHT22;16707;48.106;11.548;2023-02-28T03:07:01;-3.30;99.90
29813;DHT22;16707;48.106;11.548;2023-02-28T03:09:29;-3.30;99.90
29813;DHT22;16707;48.106;11.548;2023-02-28T03:12:24;-3.30;99.90
29813;DHT22;16707;48.106;11.548;2023-02-28T03:15:08;-3.30;99.90
29813;DHT22;16707;48.106;11.548;2023-02-28T03:17:50;-3.40;99.90
29813;DHT22;16707;48.106;11.548;2023-02-28T03:20:31;-3.40;99.90
29813;DHT22;16707;48.106;11.548;2023-02-28T03:23:16;-3.40;99.90
29813;DHT22;16707;48.106;11.548;2023-02-28T03:25:59;-3.40;99.90
29813;DHT22;16707;48.106;11.548;2023-02-28T03:28:50;-3.30;99.90
29813;DHT22;16707;48.106;11.548;2023-02-28T03:31:22;-3.50;99.90
29813;DHT22;16707;48.106;11.548;2023-02-28T03:33:53;-3.50;99.90
29813;DHT22;16707;48.106;11.548;2023-02-28T03:36:29;-3.50;99.90
29813;DHT22;16707;48.106;11.548;2023-02-28T03:39:00;-3.60;99.90
29813;DHT22;16707;48.106;11.548;2023-02-28T03:41:32;-3.50;99.90
29813;DHT22;16707;48.106;11.548;2023-02-28T03:44:07;-3.50;99.90
29813;DHT22;16707;48.106;11.548;2023-02-28T03:46:41;-3.50;99.90
29813;DHT22;16707;48.106;11.548;2023-02-28T03:49:23;-3.40;99.90
29813;DHT22;16707;48.106;11.548;2023-02-28T03:51:52;-3.40;99.90
29813;DHT22;16707;48.106;11.548;2023-02-28T03:54:29;-3.40;99.90
29813;DHT22;16707;48.106;11.548;2023-02-28T03:57:26;-3.40;99.90
29813;DHT22;16707;48.106;11.548;2023-02-28T04:00:00;-3.50;99.90
29813;DHT22;16707;48.106;11.548;2023-02-28T04:02:34;-3.50;99.90
29813;DHT22;16707;48.106;11.548;2023-02-28T04:05:04;-3.50;99.90
29813;DHT22;16707;48.106;11.548;2023-02-28T04:07:32;-3.60;99.90
29813;DHT22;16707;48.106;11.548;2023-02-28T04:10:09;-3.60;99.90
29813;DHT22;16707;48.106;11.548;2023-02-28T04:12:37;-3.50;99.90
29813;DHT22;16707;48.106;11.548;2023-02-28T04:15:11;-3.50;99.90
29813;DHT22;16707;48.106;11.548;2023-02-28T04:17:40;-3.50;99.90
29813;DHT22;16707;48.106;11.548;2023-02-28T04:20:12;-3.50;99.90
29813;DHT22;16707;48.106;11.548;2023-02-28T04:23:06;-3.40;99.90
29813;DHT22;16707;48.106;11.548;2023-02-28T04:25:40;-3.30;99.90
29813;DHT22;16707;48.106;11.548;2023-02-28T04:28:07;-3.40;99.90
29813;DHT22;16707;48.106;11.548;2023-02-28T04:30:38;-3.50;99.90
29813;DHT22;16707;48.106;11.548;2023-02-28T04:33:06;-3.50;99.90
29813;DHT22;16707;48.106;11.548;2023-02-28T04:35:36;-3.50;99.90
29813;DHT22;16707;48.106;11.548;2023-02-28T04:38:06;-3.50;99.90
29813;DHT22;16707;48.106;11.548;2023-02-28T04:40:33;-3.40;99.90
29813;DHT22;16707;48.106;11.548;2023-02-28T04:43:18;-3.40;99.90
29813;DHT22;16707;48.106;11.548;2023-02-28T04:45:50;-3.20;99.90
29813;DHT22;16707;48.106;11.548;2023-02-28T04:48:17;-3.20;99.90
29813;DHT22;16707;48.106;11.548;2023-02-28T04:50:44;-3.10;99.90
29813;DHT22;16707;48.106;11.548;2023-02-28T04:53:19;-3.20;99.90
29813;DHT22;16707;48.106;11.548;2023-02-28T04:55:46;-3.20;99.90
29813;DHT22;16707;48.106;11.548;2023-02-28T04:58:25;-3.10;99.90
29813;DHT22;16707;48.106;11.548;2023-02-28T05:00:52;-3.00;99.90
29813;DHT22;16707;48.106;11.548;2023-02-28T05:03:22;-3.00;99.90
29813;DHT22;16707;48.106;11.548;2023-02-28T05:05:50;-3.00;99.90
29813;DHT22;16707;48.106;11.548;2023-02-28T05:08:16;-3.00;99.90
29813;DHT22;16707;48.106;11.548;2023-02-28T05:10:43;-2.90;99.90
29813;DHT22;16707;48.106;11.548;2023-02-28T05:13:13;-2.80;99.90
29813;DHT22;16707;48.106;11.548;2023-02-28T05:15:42;-2.80;99.90
29813;DHT22;16707;48.106;11.548;2023-02-28T05:18:09;-2.70;99.90
29813;DHT22;16707;48.106;11.548;2023-02-28T05:20:45;-2.60;99.90
29813;DHT22;16707;48.106;11.548;2023-02-28T05:23:13;-2.70;99.90
29813;DHT22;16707;48.106;11.548;2023-02-28T05:25:47;-2.60;99.90
29813;DHT22;16707;48.106;11.548;2023-02-28T05:28:14;-2.60;99.90
29813;DHT22;16707;48.106;11.548;2023-02-28T05:30:43;-2.60;99.90
29813;DHT22;16707;48.106;11.548;2023-02-28T05:33:11;-2.50;99.90
29813;DHT22;16707;48.106;11.548;2023-02-28T05:35:43;-2.40;99.90
29813;DHT22;16707;48.106;11.548;2023-02-28T05:38:10;-2.40;99.90
29813;DHT22;16707;48.106;11.548;2023-02-28T05:40:41;-2.30;99.90
29813;DHT22;16707;48.106;11.548;2023-02-28T05:43:12;-2.30;99.90
29813;DHT22;16707;48.106;11.548;2023-02-28T05:45:47;-2.20;99.90
29813;DHT22;16707;48.106;11.548;2023-02-28T05:48:17;-2.10;99.90
29813;DHT22;16707;48.106;11.548;2023-02-28T05:50:45;-2.10;99.90
29813;DHT22;16707;48.106;11.548;2023-02-28T05:53:12;-2.10;99.90
29813;DHT22;16707;48.106;11.548;2023-02-28T05:55:41;-2.10;99.90
29813;DHT22;16707;48.106;11.548;2023-02-28T05:58:08;-2.10;99.90
29813;DHT22;16707;48.106;11.548;2023-02-28T06:00:35;-2.00;99.90
29813;DHT22;16707;48.106;11.548;2023-02-28T06:03:09;-2.00;99.90
29813;DHT22;16707;48.106;11.548;2023-02-28T06:05:36;-2.00;99.90
29813;DHT22;16707;48.106;11.548;2023-02-28T06:08:04;-1.90;99.90
29813;DHT22;16707;48.106;11.548;2023-02-28T06:10:32;-1.90;99.90
29813;DHT22;16707;48.106;11.548;2023-02-28T06:13:03;-1.90;99.90
29813;DHT22;16707;48.106;11.548;2023-02-28T06:15:31;-1.90;99.90
29813;DHT22;16707;48.106;11.548;2023-02-28T06:17:59;-1.90;99.90
29813;DHT22;16707;48.106;11.548;2023-02-28T06:20:27;-1.90;99.90
29813;DHT22;16707;48.106;11.548;2023-02-28T06:22:56;-1.80;99.90
29813;DHT22;16707;48.106;11.548;2023-02-28T06:25:26;-1.90;99.90
29813;DHT22;16707;48.106;11.548;2023-02-28T06:27:54;-1.80;99.90
29813;DHT22;16707;48.106;11.548;2023-02-28T06:30:25;-1.80;99.90
29813;DHT22;16707;48.106;11.548;2023-02-28T06:32:53;-1.70;99.90
29813;DHT22;16707;48.106;11.548;2023-02-28T06:35:23;-1.80;99.90
29813;DHT22;16707;48.106;11.548;2023-02-28T06:37:51;-1.70;99.90
29813;DHT22;16707;48.106;11.548;2023-02-28T06:40:23;-1.80;99.90
29813;DHT22;16707;48.106;11.548;2023-02-28T06:42:53;-1.90;99.90
29813;DHT22;16707;48.106;11.548;2023-02-28T06:45:23;-1.80;99.90
29813;DHT22;16707;48.106;11.548;2023-02-28T06:47:51;-1.80;99.90
29813;DHT22;16707;48.106;11.548;2023-02-28T06:50:18;-1.60;99.90
29813;DHT22;16707;48.106;11.548;2023-02-28T06:52:46;-1.50;99.90
29813;DHT22;16707;48.106;11.548;2023-02-28T06:55:14;-1.70;99.90
29813;DHT22;16707;48.106;11.548;2023-02-28T06:57:43;-1.60;99.90
29813;DHT22;16707;48.106;11.548;2023-02-28T07:00:11;-1.70;99.90
29813;DHT22;16707;48.106;11.548;2023-02-28T07:02:41;-1.60;99.90
29813;DHT22;16707;48.106;11.548;2023-02-28T07:05:08;-1.60;99.90
29813;DHT22;16707;48.106;11.548;2023-02-28T07:07:39;-1.60;99.90
29813;DHT22;16707;48.106;11.548;2023-02-28T07:10:10;-1.50;99.90
29813;DHT22;16707;48.106;11.548;2023-02-28T07:12:39;-1.50;99.90
29813;DHT22;16707;48.106;11.548;2023-02-28T07:15:08;-1.30;99.90
29813;DHT22;16707;48.106;11.548;2023-02-28T07:17:38;-1.50;99.90
29813;DHT22;16707;48.106;11.548;2023-02-28T07:20:09;-1.70;99.90
29813;DHT22;16707;48.106;11.548;2023-02-28T07:22:36;-1.60;99.90
29813;DHT22;16707;48.106;11.548;2023-02-28T07:25:04;-1.60;99.90
29813;DHT22;16707;48.106;11.548;2023-02-28T07:27:34;-1.70;99.90
29813;DHT22;16707;48.106;11.548;2023-02-28T07:30:04;-1.60;99.90
29813;DHT22;16707;48.106;11.548;2023-02-28T07:32:31;-1.40;99.90
29813;DHT22;16707;48.106;11.548;2023-02-28T07:34:58;-1.50;99.90
29813;DHT22;16707;48.106;11.548;2023-02-28T07:37:24;-1.30;99.90
29813;DHT22;16707;48.106;11.548;2023-02-28T07:39:54;-1.40;99.90
29813;DHT22;16707;48.106;11.548;2023-02-28T07:42:21;-1.50;99.90
29813;DHT22;16707;48.106;11.548;2023-02-28T07:44:48;-1.40;99.90
29813;DHT22;16707;48.106;11.548;2023-02-28T07:47:19;-1.30;99.90
29813;DHT22;16707;48.106;11.548;2023-02-28T07:49:46;-1.20;99.90
29813;DHT22;16707;48.106;11.548;2023-02-28T07:52:13;-1.20;99.90
29813;DHT22;16707;48.106;11.548;2023-02-28T07:54:43;-1.50;99.90
29813;DHT22;16707;48.106;11.548;2023-02-28T07:57:12;-1.30;99.90
29813;DHT22;16707;48.106;11.548;2023-02-28T07:59:39;-1.40;99.90
29813;DHT22;16707;48.106;11.548;2023-02-28T08:02:10;-1.30;99.90
29813;DHT22;16707;48.106;11.548;2023-02-28T08:04:40;-1.30;99.90
29813;DHT22;16707;48.106;11.548;2023-02-28T08:07:12;-1.30;99.90
29813;DHT22;16707;48.106;11.548;2023-02-28T08:09:41;-1.40;99.90
29813;DHT22;16707;48.106;11.548;2023-02-28T08:12:11;-1.30;99.90
29813;DHT22;16707;48.106;11.548;2023-02-28T08:14:39;-1.20;99.90
29813;DHT22;16707;48.106;11.548;2023-02-28T08:17:06;-1.00;99.90
29813;DHT22;16707;48.106;11.548;2023-02-28T08:19:34;-1.30;99.90
29813;DHT22;16707;48.106;11.548;2023-02-28T08:22:03;-1.20;99.90
29813;DHT22;16707;48.106;11.548;2023-02-28T08:24:30;-1.00;99.90
29813;DHT22;16707;48.106;11.548;2023-02-28T08:27:03;-0.80;99.90
29813;DHT22;16707;48.106;11.548;2023-02-28T08:29:36;-0.70;99.50
29813;DHT22;16707;48.106;11.548;2023-02-28T08:32:06;-0.70;99.30
29813;DHT22;16707;48.106;11.548;2023-02-28T08:34:33;-0.80;99.40
29813;DHT22;16707;48.106;11.548;2023-02-28T08:37:02;-0.80;99.60
29813;DHT22;16707;48.106;11.548;2023-02-28T08:39:29;-0.90;99.80
29813;DHT22;16707;48.106;11.548;2023-02-28T08:41:56;-0.80;99.60
29813;DHT22;16707;48.106;11.548;2023-02-28T08:44:23;-0.70;99.30
29813;DHT22;16707;48.106;11.548;2023-02-28T08:46:50;-0.80;99.40
29813;DHT22;16707;48.106;11.548;2023-02-28T08:49:17;-0.80;99.70
29813;DHT22;16707;48.106;11.548;2023-02-28T08:51:45;-0.90;99.60
29813;DHT22;16707;48.106;11.548;2023-02-28T08:54:14;-0.80;99.80
29813;DHT22;16707;48.106;11.548;2023-02-28T08:56:45;-0.60;99.70
29813;DHT22;16707;48.106;11.548;2023-02-28T08:59:15;-0.70;99.50
29813;DHT22;16707;48.106;11.548;2023-02-28T09:01:45;-0.40;99.20
29813;DHT22;16707;48.106;11.548;2023-02-28T09:04:18;-0.20;98.20
29813;DHT22;16707;48.106;11.548;2023-02-28T09:06:45;-0.10;97.60
29813;DHT22;16707;48.106;11.548;2023-02-28T09:09:15;0.00;97.40
29813;DHT22;16707;48.106;11.548;2023-02-28T09:11:45;0.00;97.10
29813;DHT22;16707;48.106;11.548;2023-02-28T09:14:12;0.10;97.10
29813;DHT22;16707;48.106;11.548;2023-02-28T09:16:40;0.20;96.70
29813;DHT22;16707;48.106;11.548;2023-02-28T09:19:06;0.40;96.50
29813;DHT22;16707;48.106;11.548;2023-02-28T09:21:37;0.50;95.90
29813;DHT22;16707;48.106;11.548;2023-02-28T09:24:05;0.50;96.10
29813;DHT22;16707;48.106;11.548;2023-02-28T09:26:37;0.50;96.00
29813;DHT22;16707;48.106;11.548;2023-02-28T09:29:04;0.60;95.80
29813;DHT22;16707;48.106;11.548;2023-02-28T09:31:32;0.30;95.70
29813;DHT22;16707;48.106;11.548;2023-02-28T09:34:09;0.40;95.90
29813;DHT22;16707;48.106;11.548;2023-02-28T09:36:36;0.40;95.40
29813;DHT22;16707;48.106;11.548;2023-02-28T09:39:03;0.00;95.50
29813;DHT22;16707;48.106;11.548;2023-02-28T09:41:38;-0.10;96.70
29813;DHT22;16707;48.106;11.548;2023-02-28T09:44:19;-0.10;96.50
29813;DHT22;16707;48.106;11.548;2023-02-28T09:46:56;-0.30;96.70
29813;DHT22;16707;48.106;11.548;2023-02-28T09:49:35;-0.30;97.50
29813;DHT22;16707;48.106;11.548;2023-02-28T09:52:05;-0.20;97.50
29813;DHT22;16707;48.106;11.548;2023-02-28T09:54:35;-0.20;96.80
29813;DHT22;16707;48.106;11.548;2023-02-28T09:57:14;0.00;96.90
29813;DHT22;16707;48.106;11.548;2023-02-28T09:59:52;0.30;96.30
29813;DHT22;16707;48.106;11.548;2023-02-28T10:05:25;0.80;94.90
29813;DHT22;16707;48.106;11.548;2023-02-28T10:08:02;1.20;94.30
29813;DHT22;16707;48.106;11.548;2023-02-28T10:10:39;1.00;93.20
29813;DHT22;16707;48.106;11.548;2023-02-28T10:13:15;1.10;93.40
29813;DHT22;16707;48.106;11.548;2023-02-28T10:15:50;0.90;93.80
29813;DHT22;16707;48.106;11.548;2023-02-28T10:18:23;0.30;94.60
29813;DHT22;16707;48.106;11.548;2023-02-28T10:20:54;0.50;95.30
29813;DHT22;16707;48.106;11.548;2023-02-28T10:23:25;0.50;95.50
29813;DHT22;16707;48.106;11.548;2023-02-28T10:25:57;0.80;94.90
29813;DHT22;16707;48.106;11.548;2023-02-28T10:28:31;0.60;94.30
29813;DHT22;16707;48.106;11.548;2023-02-28T10:30:58;0.50;94.80
29813;DHT22;16707;48.106;11.548;2023-02-28T10:33:28;0.70;94.80
29813;DHT22;16707;48.106;11.548;2023-02-28T10:35:55;0.60;95.10
29813;DHT22;16707;48.106;11.548;2023-02-28T10:38:27;0.90;94.60
29813;DHT22;16707;48.106;11.548;2023-02-28T10:41:05;0.90;93.70
29813;DHT22;16707;48.106;11.548;2023-02-28T10:43:34;0.50;94.10
29813;DHT22;16707;48.106;11.548;2023-02-28T10:46:03;0.40;94.10
29813;DHT22;16707;48.106;11.548;2023-02-28T10:48:36;0.50;94.10
29813;DHT22;16707;48.106;11.548;2023-02-28T10:51:08;0.70;94.20
29813;DHT22;16707;48.106;11.548;2023-02-28T10:53:48;1.00;93.00
29813;DHT22;16707;48.106;11.548;2023-02-28T10:56:17;1.10;92.50
29813;DHT22;16707;48.106;11.548;2023-02-28T10:58:51;1.30;92.10
29813;DHT22;16707;48.106;11.548;2023-02-28T11:01:21;1.60;91.50
29813;DHT22;16707;48.106;11.548;2023-02-28T11:03:50;2.10;91.00
29813;DHT22;16707;48.106;11.548;2023-02-28T11:06:19;2.10;90.70
29813;DHT22;16707;48.106;11.548;2023-02-28T11:08:49;2.40;90.10
29813;DHT22;16707;48.106;11.548;2023-02-28T11:11:23;2.40;88.80
29813;DHT22;16707;48.106;11.548;2023-02-28T11:13:56;2.40;88.60
29813;DHT22;16707;48.106;11.548;2023-02-28T11:16:32;2.50;87.80
29813;DHT22;16707;48.106;11.548;2023-02-28T11:19:00;2.10;88.40
29813;DHT22;16707;48.106;11.548;2023-02-28T11:21:35;2.00;89.40
29813;DHT22;16707;48.106;11.548;2023-02-28T11:24:14;2.00;90.00
29813;DHT22;16707;48.106;11.548;2023-02-28T11:26:44;2.00;90.30
29813;DHT22;16707;48.106;11.548;2023-02-28T11:29:21;2.30;89.10
29813;DHT22;16707;48.106;11.548;2023-02-28T11:32:04;2.00;89.00
29813;DHT22;16707;48.106;11.548;2023-02-28T11:34:36;2.00;90.00
29813;DHT22;16707;48.106;11.548;2023-02-28T11:37:05;2.00;90.10
29813;DHT22;16707;48.106;11.548;2023-02-28T11:39:32;2.00;90.00
29813;DHT22;16707;48.106;11.548;2023-02-28T11:42:22;2.20;89.00
29813;DHT22;16707;48.106;11.548;2023-02-28T11:45:02;2.20;89.10
29813;DHT22;16707;48.106;11.548;2023-02-28T11:47:38;2.40;88.20
29813;DHT22;16707;48.106;11.548;2023-02-28T11:50:33;2.40;88.70
29813;DHT22;16707;48.106;11.548;2023-02-28T11:53:13;2.30;88.90
29813;DHT22;16707;48.106;11.548;2023-02-28T11:55:46;2.60;89.10
29813;DHT22;16707;48.106;11.548;2023-02-28T11:58:24;3.00;86.70
29813;DHT22;16707;48.106;11.548;2023-02-28T12:01:13;3.40;84.00
29813;DHT22;16707;48.106;11.548;2023-02-28T12:03:47;3.60;83.80
29813;DHT22;16707;48.106;11.548;2023-02-28T12:06:25;3.10;85.40
29813;DHT22;16707;48.106;11.548;2023-02-28T12:09:34;3.20;85.20
29813;DHT22;16707;48.106;11.548;2023-02-28T12:12:10;2.80;84.60
29813;DHT22;16707;48.106;11.548;2023-02-28T12:14:54;3.00;86.20
29813;DHT22;16707;48.106;11.548;2023-02-28T12:17:35;3.20;83.80
29813;DHT22;16707;48.106;11.548;2023-02-28T12:20:15;3.30;83.80
29813;DHT22;16707;48.106;11.548;2023-02-28T12:22:49;3.40;84.00
29813;DHT22;16707;48.106;11.548;2023-02-28T12:25:40;3.10;84.20
29813;DHT22;16707;48.106;11.548;2023-02-28T12:28:16;3.30;85.10
29813;DHT22;16707;48.106;11.548;2023-02-28T12:30:49;3.50;84.30
29813;DHT22;16707;48.106;11.548;2023-02-28T12:33:23;3.60;82.20
29813;DHT22;16707;48.106;11.548;2023-02-28T12:35:54;3.40;83.10
29813;DHT22;16707;48.106;11.548;2023-02-28T12:38:24;3.40;84.20
29813;DHT22;16707;48.106;11.548;2023-02-28T12:40:55;3.60;82.90
29813;DHT22;16707;48.106;11.548;2023-02-28T12:43:27;3.70;81.80
29813;DHT22;16707;48.106;11.548;2023-02-28T12:45:58;3.40;83.50
29813;DHT22;16707;48.106;11.548;2023-02-28T12:48:32;3.60;82.30
29813;DHT22;16707;48.106;11.548;2023-02-28T12:51:04;3.10;82.20
29813;DHT22;16707;48.106;11.548;2023-02-28T12:53:41;2.50;84.50
29813;DHT22;16707;48.106;11.548;2023-02-28T12:56:15;2.40;86.00
29813;DHT22;16707;48.106;11.548;2023-02-28T12:58:54;2.70;86.40
29813;DHT22;16707;48.106;11.548;2023-02-28T13:04:36;3.00;84.20
29813;DHT22;16707;48.106;11.548;2023-02-28T13:07:28;3.20;84.80
29813;DHT22;16707;48.106;11.548;2023-02-28T13:10:02;3.50;84.60
29813;DHT22;16707;48.106;11.548;2023-02-28T13:12:32;3.90;82.20
29813;DHT22;16707;48.106;11.548;2023-02-28T13:15:06;4.10;80.30
29813;DHT22;16707;48.106;11.548;2023-02-28T13:17:40;4.30;78.90
29813;DHT22;16707;48.106;11.548;2023-02-28T13:20:18;4.40;78.90
29813;DHT22;16707;48.106;11.548;2023-02-28T13:22:48;4.70;77.50
29813;DHT22;16707;48.106;11.548;2023-02-28T13:34:35;5.00;75.00
29813;DHT22;16707;48.106;11.548;2023-02-28T13:37:36;4.80;74.80
29813;DHT22;16707;48.106;11.548;2023-02-28T13:40:36;4.40;76.10
29813;DHT22;16707;48.106;11.548;2023-02-28T13:43:10;4.20;77.80
29813;DHT22;16707;48.106;11.548;2023-02-28T13:45:37;4.40;78.00
29813;DHT22;16707;48.106;11.548;2023-02-28T13:48:16;4.40;77.70
29813;DHT22;16707;48.106;11.548;2023-02-28T13:50:44;4.30;78.20
29813;DHT22;16707;48.106;11.548;2023-02-28T13:53:50;4.10;78.40
29813;DHT22;16707;48.106;11.548;2023-02-28T13:56:32;4.10;78.50
29813;DHT22;16707;48.106;11.548;2023-02-28T13:59:14;4.30;78.20
29813;DHT22;16707;48.106;11.548;2023-02-28T14:01:56;4.40;78.00
29813;DHT22;16707;48.106;11.548;2023-02-28T14:05:00;4.60;76.90
29813;DHT22;16707;48.106;11.548;2023-02-28T14:07:36;4.60;76.80
29813;DHT22;16707;48.106;11.548;2023-02-28T14:10:15;4.70;77.30
29813;DHT22;16707;48.106;11.548;2023-02-28T14:12:57;4.60;77.90
29813;DHT22;16707;48.106;11.548;2023-02-28T14:15:47;4.60;76.70
29813;DHT22;16707;48.106;11.548;2023-02-28T14:18:25;4.60;76.30
29813;DHT22;16707;48.106;11.548;2023-02-28T14:20:57;4.60;77.20
29813;DHT22;16707;48.106;11.548;2023-02-28T14:23:40;4.30;76.70
29813;DHT22;16707;48.106;11.548;2023-02-28T14:26:19;3.80;78.60
29813;DHT22;16707;48.106;11.548;2023-02-28T14:29:05;3.60;81.20
29813;DHT22;16707;48.106;11.548;2023-02-28T14:31:43;3.80;81.10
29813;DHT22;16707;48.106;11.548;2023-02-28T14:34:24;4.00;79.60
29813;DHT22;16707;48.106;11.548;2023-02-28T14:36:53;3.90;78.70
29813;DHT22;16707;48.106;11.548;2023-02-28T14:39:22;3.70;79.20
29813;DHT22;16707;48.106;11.548;2023-02-28T14:41:52;3.60;80.90
29813;DHT22;16707;48.106;11.548;2023-02-28T14:44:21;3.90;80.00
29813;DHT22;16707;48.106;11.548;2023-02-28T14:46:50;3.90;79.50
29813;DHT22;16707;48.106;11.548;2023-02-28T14:49:21;4.00;79.20
29813;DHT22;16707;48.106;11.548;2023-02-28T14:51:49;3.90;79.50
29813;DHT22;16707;48.106;11.548;2023-02-28T14:54:21;3.70;80.60
29813;DHT22;16707;48.106;11.548;2023-02-28T14:56:51;3.60;81.80
29813;DHT22;16707;48.106;11.548;2023-02-28T14:59:25;3.60;80.40
29813;DHT22;16707;48.106;11.548;2023-02-28T15:01:53;3.50;81.50
29813;DHT22;16707;48.106;11.548;2023-02-28T15:04:33;3.60;81.00
29813;DHT22;16707;48.106;11.548;2023-02-28T15:07:10;3.50;80.90
29813;DHT22;16707;48.106;11.548;2023-02-28T15:09:38;3.30;80.60
29813;DHT22;16707;48.106;11.548;2023-02-28T15:12:07;3.50;81.60
29813;DHT22;16707;48.106;11.548;2023-02-28T15:14:35;3.50;80.60
29813;DHT22;16707;48.106;11.548;2023-02-28T15:17:09;3.40;81.30
29813;DHT22;16707;48.106;11.548;2023-02-28T15:19:41;3.40;80.90
29813;DHT22;16707;48.106;11.548;2023-02-28T15:22:16;3.40;81.60
29813;DHT22;16707;48.106;11.548;2023-02-28T15:24:46;3.30;81.10
29813;DHT22;16707;48.106;11.548;2023-02-28T15:27:21;3.30;81.10
29813;DHT22;16707;48.106;11.548;2023-02-28T15:29:51;3.20;81.30
29813;DHT22;16707;48.106;11.548;2023-02-28T15:32:30;3.20;81.90
29813;DHT22;16707;48.106;11.548;2023-02-28T15:35:16;3.10;82.10
29813;DHT22;16707;48.106;11.548;2023-02-28T15:37:47;3.00;82.80
29813;DHT22;16707;48.106;11.548;2023-02-28T15:40:17;2.90;82.80
29813;DHT22;16707;48.106;11.548;2023-02-28T15:43:04;2.90;83.20
29813;DHT22;16707;48.106;11.548;2023-02-28T15:45:40;2.80;83.20
29813;DHT22;16707;48.106;11.548;2023-02-28T15:48:16;2.80;83.80
29813;DHT22;16707;48.106;11.548;2023-02-28T15:50:44;2.80;84.10
29813;DHT22;16707;48.106;11.548;2023-02-28T15:53:17;2.80;84.90
29813;DHT22;16707;48.106;11.548;2023-02-28T15:55:45;2.90;85.30
29813;DHT22;16707;48.106;11.548;2023-02-28T15:58:20;2.90;84.80
29813;DHT22;16707;48.106;11.548;2023-02-28T16:03:45;2.80;85.00
29813;DHT22;16707;48.106;11.548;2023-02-28T16:06:33;2.70;85.70
29813;DHT22;16707;48.106;11.548;2023-02-28T16:09:03;2.70;86.10
29813;DHT22;16707;48.106;11.548;2023-02-28T16:11:34;2.60;86.20
29813;DHT22;16707;48.106;11.548;2023-02-28T16:14:03;2.60;86.50
29813;DHT22;16707;48.106;11.548;2023-02-28T16:16:31;2.70;87.00
29813;DHT22;16707;48.106;11.548;2023-02-28T16:18:59;2.70;87.30